createdAt,value
2023-04-04T00:00:40.730Z,6.00
2023-04-04T00:03:18.255Z,6.68
2023-04-04T00:05:45.684Z,6.47
2023-04-04T00:08:12.950Z,6.07
2023-04-04T00:10:40.668Z,7.65
2023-04-04T00:13:09.072Z,7.68
2023-04-04T00:15:36.734Z,6.72
2023-04-04T00:18:04.297Z,4.90
2023-04-04T00:20:32.022Z,6.20
2023-04-04T00:22:59.407Z,5.05
2023-04-04T00:25:26.808Z,6.25
2023-04-04T00:27:53.963Z,4.95
2023-04-04T00:30:21.578Z,6.15
2023-04-04T00:32:48.795Z,5.78
2023-04-04T00:35:16.327Z,7.40
2023-04-04T00:37:43.507Z,6.90
2023-04-04T00:40:11.064Z,6.47
2023-04-04T00:42:38.450Z,9.68
2023-04-04T00:45:08.403Z,5.22
2023-04-04T00:47:37.845Z,9.70
2023-04-04T00:50:07.387Z,4.88
2023-04-04T00:52:34.620Z,5.68
2023-04-04T00:55:02.212Z,7.82
2023-04-04T00:57:30.320Z,8.48
2023-04-04T00:59:59.612Z,6.55
2023-04-04T01:02:26.866Z,7.47
2023-04-04T01:04:55.834Z,5.82
2023-04-04T01:07:23.178Z,6.72
2023-04-04T01:09:51.472Z,9.55
2023-04-04T01:12:19.881Z,6.60
2023-04-04T01:14:47.265Z,8.07
2023-04-04T01:17:15.806Z,7.35
2023-04-04T01:19:53.649Z,8.18
2023-04-04T01:22:23.490Z,8.10
2023-04-04T01:24:55.424Z,6.20
2023-04-04T01:27:25.109Z,7.47
2023-04-04T01:30:03.467Z,7.93
2023-04-04T01:32:47.846Z,8.52
2023-04-04T01:35:43.817Z,7.20
2023-04-04T01:38:44.879Z,7.15
2023-04-04T01:41:14.695Z,8.52
2023-04-04T01:43:48.141Z,5.95
2023-04-04T01:46:17.965Z,6.60
2023-04-04T01:48:47.072Z,6.85
2023-04-04T01:51:18.688Z,6.07
2023-04-04T01:53:45.766Z,5.38
2023-04-04T01:56:13.186Z,6.65
2023-04-04T01:58:41.138Z,6.40
2023-04-04T02:01:09.660Z,7.10
2023-04-04T02:03:36.819Z,6.90
2023-04-04T02:06:04.359Z,6.55
2023-04-04T02:08:31.828Z,5.38
2023-04-04T02:10:59.580Z,6.32
2023-04-04T02:13:27.901Z,7.55
2023-04-04T02:15:58.106Z,6.47
2023-04-04T02:18:25.914Z,8.70
2023-04-04T02:21:00.128Z,6.43
2023-04-04T02:23:27.386Z,6.47
2023-04-04T02:25:55.180Z,7.18
2023-04-04T02:28:22.876Z,7.38
2023-04-04T02:30:50.225Z,6.13
2023-04-04T02:33:18.036Z,9.43
2023-04-04T02:35:46.808Z,5.65
2023-04-04T02:38:13.982Z,8.25
2023-04-04T02:40:47.974Z,7.15
2023-04-04T02:43:15.558Z,6.60
2023-04-04T02:45:42.944Z,7.13
2023-04-04T02:48:23.022Z,6.75
2023-04-04T02:50:52.959Z,8.40
2023-04-04T02:53:20.256Z,9.05
2023-04-04T02:55:50.071Z,6.65
2023-04-04T02:58:17.783Z,7.28
2023-04-04T03:00:47.275Z,7.07
2023-04-04T03:03:14.986Z,8.43
2023-04-04T03:05:45.605Z,6.63
2023-04-04T03:08:12.647Z,9.43
2023-04-04T03:10:40.240Z,6.13
2023-04-04T03:13:07.738Z,6.97
2023-04-04T03:15:35.964Z,7.22
2023-04-04T03:18:03.831Z,8.52
2023-04-04T03:20:33.165Z,7.72
2023-04-04T03:23:00.316Z,7.88
2023-04-04T03:25:28.638Z,6.97
2023-04-04T03:27:55.743Z,6.70
2023-04-04T03:30:26.134Z,5.57
2023-04-04T03:32:53.555Z,6.35
2023-04-04T03:35:21.111Z,7.63
2023-04-04T03:37:48.267Z,8.50
2023-04-04T03:40:15.791Z,6.30
2023-04-04T03:42:43.013Z,6.65
2023-04-04T03:45:12.571Z,6.85
2023-04-04T03:47:43.037Z,7.13
2023-04-04T03:50:11.347Z,5.50
2023-04-04T03:52:45.647Z,7.00
2023-04-04T03:55:13.119Z,6.13
2023-04-04T03:57:40.274Z,5.93
2023-04-04T04:00:12.151Z,8.10
2023-04-04T04:02:40.151Z,8.98
2023-04-04T04:05:09.328Z,6.05
2023-04-04T04:07:36.554Z,6.63
2023-04-04T04:10:05.390Z,7.85
2023-04-04T04:12:33.292Z,6.05
2023-04-04T04:15:00.902Z,7.25
2023-04-04T04:17:31.162Z,10.00
2023-04-04T04:19:58.828Z,6.85
2023-04-04T04:22:30.031Z,8.32
2023-04-04T04:24:57.491Z,10.40
2023-04-04T04:27:24.699Z,6.30
2023-04-04T04:29:52.156Z,8.30
2023-04-04T04:32:19.680Z,8.73
2023-04-04T04:34:51.859Z,7.22
2023-04-04T04:37:26.092Z,9.55
2023-04-04T04:39:56.195Z,6.78
2023-04-04T04:42:53.283Z,5.15
2023-04-04T04:45:23.259Z,7.13
2023-04-04T04:48:00.677Z,7.38
2023-04-04T04:50:28.471Z,7.72
2023-04-04T04:52:56.295Z,7.38
2023-04-04T04:55:25.448Z,7.85
2023-04-04T04:58:04.268Z,6.65
2023-04-04T05:00:33.025Z,6.47
2023-04-04T05:03:00.841Z,8.55
2023-04-04T05:05:38.200Z,7.78
2023-04-04T05:08:09.953Z,6.47
2023-04-04T05:10:42.525Z,6.72
2023-04-04T05:13:10.592Z,7.70
2023-04-04T05:15:43.328Z,8.85
2023-04-04T05:18:10.532Z,8.70
2023-04-04T05:20:38.728Z,7.13
2023-04-04T05:23:07.988Z,7.60
2023-04-04T05:25:39.799Z,7.15
2023-04-04T05:28:07.996Z,8.23
2023-04-04T05:30:37.421Z,12.00
2023-04-04T05:33:15.702Z,9.00
2023-04-04T05:35:49.410Z,8.60
2023-04-04T05:38:18.169Z,13.18
2023-04-04T05:40:48.480Z,10.40
2023-04-04T05:43:15.576Z,10.77
2023-04-04T05:45:58.038Z,11.50
2023-04-04T05:48:26.649Z,8.40
2023-04-04T05:50:54.742Z,6.53
2023-04-04T05:53:34.799Z,8.65
2023-04-04T05:56:04.089Z,11.52
2023-04-04T05:58:33.981Z,8.07
2023-04-04T06:01:08.960Z,8.57
2023-04-04T06:03:37.028Z,9.63
2023-04-04T06:06:08.462Z,10.02
2023-04-04T06:08:46.622Z,9.35
2023-04-04T06:11:22.536Z,7.75
2023-04-04T06:13:51.381Z,8.68
2023-04-04T06:16:21.794Z,8.50
2023-04-04T06:18:48.920Z,8.20
2023-04-04T06:21:16.263Z,10.07
2023-04-04T06:23:43.369Z,8.85
2023-04-04T06:26:10.892Z,10.80
2023-04-04T06:28:49.257Z,9.48
2023-04-04T06:31:19.649Z,10.80
2023-04-04T06:33:48.071Z,8.77
2023-04-04T06:36:16.667Z,10.05
2023-04-04T06:38:43.788Z,9.85
2023-04-04T06:41:17.328Z,11.23
2023-04-04T06:43:48.498Z,9.52
2023-04-04T06:46:16.090Z,10.48
2023-04-04T06:48:43.463Z,7.88
2023-04-04T06:51:12.095Z,9.63
2023-04-04T06:53:43.849Z,9.82
2023-04-04T06:56:11.963Z,7.75
2023-04-04T06:58:39.604Z,7.05
2023-04-04T07:01:07.968Z,8.85
2023-04-04T07:03:35.085Z,11.32
2023-04-04T07:06:06.045Z,7.47
2023-04-04T07:08:36.148Z,7.05
2023-04-04T07:11:06.631Z,8.95
2023-04-04T07:13:35.039Z,8.05
2023-04-04T07:16:02.899Z,8.68
2023-04-04T07:18:30.349Z,7.07
2023-04-04T07:20:58.460Z,12.15
2023-04-04T07:23:26.007Z,7.50
2023-04-04T07:25:53.441Z,10.60
2023-04-04T07:28:20.838Z,8.20
2023-04-04T07:30:48.194Z,9.65
2023-04-04T07:33:15.627Z,9.18
2023-04-04T07:35:42.966Z,7.07
2023-04-04T07:38:10.245Z,7.38
2023-04-04T07:40:38.251Z,4.78
2023-04-04T07:43:05.675Z,7.13
2023-04-04T07:45:33.018Z,6.80
2023-04-04T07:48:00.120Z,6.53
2023-04-04T07:50:28.116Z,8.25
2023-04-04T07:52:56.075Z,7.82
2023-04-04T07:55:25.283Z,8.05
2023-04-04T07:57:54.482Z,8.98
2023-04-04T08:00:22.595Z,6.82
2023-04-04T08:02:59.091Z,8.38
2023-04-04T08:05:27.004Z,6.63
2023-04-04T08:07:54.476Z,6.60
2023-04-04T08:10:22.029Z,9.00
2023-04-04T08:12:49.593Z,8.07
2023-04-04T08:15:17.156Z,6.65
2023-04-04T08:17:44.607Z,6.80
2023-04-04T08:20:13.131Z,5.82
2023-04-04T08:22:42.101Z,6.25
2023-04-04T08:25:11.249Z,7.18
2023-04-04T08:27:43.928Z,6.25
2023-04-04T08:30:14.202Z,5.70
2023-04-04T08:32:42.449Z,5.50
2023-04-04T08:35:10.097Z,6.30
2023-04-04T08:37:37.422Z,5.47
2023-04-04T08:40:06.586Z,4.53
2023-04-04T08:42:37.249Z,4.05
2023-04-04T08:45:05.548Z,7.32
2023-04-04T08:47:36.025Z,7.70
2023-04-04T08:50:07.998Z,5.13
2023-04-04T08:52:36.792Z,9.07
2023-04-04T08:55:09.933Z,6.82
2023-04-04T08:57:37.805Z,6.35
2023-04-04T09:00:07.392Z,5.28
2023-04-04T09:03:09.600Z,5.28
2023-04-04T09:05:38.272Z,6.47
2023-04-04T09:08:08.837Z,8.30
2023-04-04T09:10:37.882Z,6.47
2023-04-04T09:13:15.601Z,4.75
2023-04-04T09:15:50.894Z,4.75
2023-04-04T09:18:18.879Z,7.30
2023-04-04T09:20:48.583Z,6.53
2023-04-04T09:23:18.461Z,4.38
2023-04-04T09:28:22.355Z,3.80
2023-04-04T09:30:52.188Z,5.65
2023-04-04T09:33:21.838Z,3.97
2023-04-04T09:35:59.754Z,3.90
2023-04-04T09:38:29.494Z,4.75
2023-04-04T09:40:57.676Z,4.45
2023-04-04T09:43:26.318Z,4.57
2023-04-04T09:45:55.328Z,5.68
2023-04-04T09:48:34.711Z,4.93
2023-04-04T09:51:07.092Z,4.40
2023-04-04T09:53:37.016Z,3.88
2023-04-04T09:56:05.956Z,2.95
2023-04-04T09:58:36.096Z,2.38
2023-04-04T10:01:12.541Z,3.00
2023-04-04T10:03:40.015Z,3.50
2023-04-04T10:06:12.336Z,3.10
2023-04-04T10:08:41.380Z,3.55
2023-04-04T10:11:11.265Z,3.97
2023-04-04T10:13:41.701Z,3.78
2023-04-04T10:16:10.896Z,3.90
2023-04-04T10:18:39.119Z,3.28
2023-04-04T10:21:15.642Z,6.45
2023-04-04T10:23:47.056Z,3.60
2023-04-04T10:26:15.313Z,3.97
2023-04-04T10:28:43.619Z,4.40
2023-04-04T10:31:23.463Z,2.72
2023-04-04T10:34:20.822Z,3.67
2023-04-04T10:36:54.909Z,3.15
2023-04-04T10:39:32.776Z,4.35
2023-04-04T10:42:01.869Z,4.47
2023-04-04T10:44:40.296Z,4.43
2023-04-04T10:47:29.860Z,3.35
2023-04-04T10:49:57.428Z,6.13
2023-04-04T10:52:30.817Z,4.47
2023-04-04T10:55:04.459Z,3.28
2023-04-04T10:57:42.442Z,4.55
2023-04-04T11:00:12.888Z,5.22
2023-04-04T11:03:00.095Z,4.82
2023-04-04T11:05:51.224Z,4.10
2023-04-04T11:08:24.959Z,3.55
2023-04-04T11:10:55.323Z,3.63
2023-04-04T11:13:33.391Z,3.03
2023-04-04T11:16:15.396Z,5.43
2023-04-04T11:18:43.654Z,3.92
2023-04-04T11:21:14.982Z,4.07
2023-04-04T11:23:48.672Z,4.03
2023-04-04T11:26:42.738Z,4.05
2023-04-04T11:29:14.369Z,3.28
2023-04-04T11:31:45.744Z,6.50
2023-04-04T11:34:16.331Z,6.20
2023-04-04T11:36:44.936Z,4.70
2023-04-04T11:39:31.906Z,3.72
2023-04-04T11:42:10.566Z,5.35
2023-04-04T11:45:03.134Z,4.00
2023-04-04T11:47:31.424Z,5.57
2023-04-04T11:50:01.613Z,4.25
2023-04-04T11:52:35.927Z,5.05
2023-04-04T11:55:22.769Z,3.75
2023-04-04T11:57:52.706Z,3.88
2023-04-04T12:00:36.830Z,4.65
2023-04-04T12:03:12.483Z,3.42
2023-04-04T12:05:43.734Z,3.35
2023-04-04T12:08:12.513Z,3.53
2023-04-04T12:10:41.075Z,4.28
2023-04-04T12:13:10.000Z,4.53
2023-04-04T12:15:38.404Z,4.95
2023-04-04T12:18:09.818Z,4.35
2023-04-04T12:20:41.515Z,3.27
2023-04-04T12:23:09.652Z,3.10
2023-04-04T12:25:40.042Z,4.50
2023-04-04T12:28:08.697Z,4.80
2023-04-04T12:30:36.781Z,5.15
2023-04-04T12:33:07.102Z,3.72
2023-04-04T12:35:34.713Z,4.13
2023-04-04T12:38:10.744Z,3.03
2023-04-04T12:40:39.472Z,3.78
2023-04-04T12:43:08.827Z,4.00
2023-04-04T12:45:41.352Z,3.60
2023-04-04T12:48:17.989Z,4.03
2023-04-04T12:51:00.253Z,3.38
2023-04-04T12:53:30.447Z,3.28
2023-04-04T12:56:05.179Z,4.15
2023-04-04T12:58:34.285Z,4.05
2023-04-04T13:01:04.079Z,4.40
2023-04-04T13:03:33.593Z,3.05
2023-04-04T13:06:01.079Z,3.55
2023-04-04T13:08:29.753Z,4.85
2023-04-04T13:11:06.955Z,5.20
2023-04-04T13:13:43.936Z,5.05
2023-04-04T13:16:14.882Z,5.88
2023-04-04T13:18:44.098Z,3.55
2023-04-04T13:21:13.162Z,4.72
2023-04-04T13:23:41.783Z,4.43
2023-04-04T13:26:11.076Z,3.50
2023-04-04T13:28:38.811Z,3.58
2023-04-04T13:31:09.972Z,3.50
2023-04-04T13:33:37.798Z,3.25
2023-04-04T13:36:06.120Z,4.55
2023-04-04T13:38:33.430Z,4.43
2023-04-04T13:41:03.411Z,3.78
2023-04-04T13:43:30.631Z,3.35
2023-04-04T13:45:58.166Z,3.65
2023-04-04T13:48:25.342Z,5.07
2023-04-04T13:50:54.981Z,3.65
2023-04-04T13:53:22.295Z,5.13
2023-04-04T13:56:13.259Z,4.50
2023-04-04T13:58:37.130Z,5.13
2023-04-04T14:01:04.660Z,3.53
2023-04-04T14:03:32.043Z,4.63
2023-04-04T14:06:06.377Z,3.90
2023-04-04T14:08:36.918Z,4.82
2023-04-04T14:11:04.760Z,6.65
2023-04-04T14:13:33.013Z,3.97
2023-04-04T14:16:00.370Z,5.65
2023-04-04T14:18:27.611Z,5.15
2023-04-04T14:20:55.627Z,5.68
2023-04-04T14:23:24.127Z,5.85
2023-04-04T14:25:51.664Z,5.05
2023-04-04T14:28:19.116Z,3.80
2023-04-04T14:30:46.436Z,4.78
2023-04-04T14:33:13.618Z,5.63
2023-04-04T14:35:41.321Z,4.97
2023-04-04T14:38:08.705Z,5.97
2023-04-04T14:40:36.476Z,5.10
2023-04-04T14:43:03.587Z,10.13
2023-04-04T14:45:32.128Z,6.72
2023-04-04T14:47:59.374Z,6.00
2023-04-04T14:50:26.764Z,6.68
2023-04-04T14:52:56.483Z,6.68
2023-04-04T14:55:25.109Z,7.18
2023-04-04T15:00:24.135Z,11.15
2023-04-04T15:02:52.745Z,9.00
2023-04-04T15:05:20.488Z,8.15
2023-04-04T15:07:47.771Z,8.85
2023-04-04T15:10:15.250Z,8.57
2023-04-04T15:12:42.289Z,6.25
2023-04-04T15:15:10.813Z,7.88
2023-04-04T15:17:37.991Z,7.53
2023-04-04T15:20:07.240Z,6.85
2023-04-04T15:22:34.520Z,6.93
2023-04-04T15:25:02.023Z,7.55
2023-04-04T15:27:29.129Z,6.18
2023-04-04T15:29:56.503Z,5.53
2023-04-04T15:32:23.714Z,8.55
2023-04-04T15:34:51.086Z,6.57
2023-04-04T15:37:18.427Z,4.90
2023-04-04T15:39:53.056Z,4.75
2023-04-04T15:42:21.665Z,2.72
2023-04-04T15:44:49.000Z,5.03
2023-04-04T15:47:16.885Z,8.30
2023-04-04T15:49:44.163Z,6.20
2023-04-04T15:52:11.405Z,6.15
2023-04-04T15:54:38.713Z,6.30
2023-04-04T15:57:06.134Z,6.15
2023-04-04T15:59:35.421Z,4.45
2023-04-04T16:02:06.435Z,5.22
2023-04-04T16:04:34.253Z,5.43
2023-04-04T16:07:02.475Z,6.57
2023-04-04T16:09:29.977Z,6.35
2023-04-04T16:11:57.471Z,4.35
2023-04-04T16:14:25.005Z,4.03
2023-04-04T16:16:52.107Z,5.60
2023-04-04T16:19:21.115Z,10.00
2023-04-04T16:21:49.292Z,5.50
2023-04-04T16:24:16.685Z,8.00
2023-04-04T16:26:47.277Z,8.85
2023-04-04T16:29:17.304Z,12.70
2023-04-04T16:31:44.735Z,16.42
2023-04-04T16:34:12.135Z,14.60
2023-04-04T16:36:39.385Z,13.20
2023-04-04T16:39:07.149Z,8.13
2023-04-04T16:41:34.507Z,8.07
2023-04-04T16:44:01.944Z,9.23
2023-04-04T16:46:29.131Z,9.07
2023-04-04T16:48:56.541Z,7.53
2023-04-04T16:51:23.622Z,8.15
2023-04-04T16:53:50.931Z,6.32
2023-04-04T16:56:18.059Z,1.90
2023-04-04T16:58:46.267Z,5.45
2023-04-04T17:01:15.140Z,6.38
2023-04-04T17:03:42.688Z,5.57
2023-04-04T17:06:10.177Z,6.90
2023-04-04T17:08:37.756Z,8.50
2023-04-04T17:11:05.142Z,10.80
2023-04-04T17:13:32.702Z,10.65
2023-04-04T17:15:59.860Z,13.90
2023-04-04T17:18:27.232Z,13.88
2023-04-04T17:20:54.580Z,15.25
2023-04-04T17:23:21.865Z,13.50
2023-04-04T17:25:49.086Z,11.18
2023-04-04T17:28:16.738Z,10.95
2023-04-04T17:30:43.811Z,11.43
2023-04-04T17:33:11.233Z,12.15
2023-04-04T17:35:38.853Z,11.73
2023-04-04T17:38:06.824Z,8.77
2023-04-04T17:40:36.277Z,9.77
2023-04-04T17:43:05.427Z,10.50
2023-04-04T17:45:32.707Z,13.02
2023-04-04T17:48:00.284Z,9.20
2023-04-04T17:50:29.689Z,9.95
2023-04-04T17:52:56.998Z,11.60
2023-04-04T17:55:24.446Z,9.98
2023-04-04T17:57:51.888Z,9.48
2023-04-04T18:00:19.943Z,10.20
2023-04-04T18:02:47.809Z,12.00
2023-04-04T18:05:15.195Z,9.80
2023-04-04T18:07:42.795Z,9.68
2023-04-04T18:10:11.406Z,8.60
2023-04-04T18:12:39.222Z,9.88
2023-04-04T18:15:07.107Z,8.40
2023-04-04T18:17:35.743Z,7.55
2023-04-04T18:20:06.168Z,7.43
2023-04-04T18:22:34.414Z,8.57
2023-04-04T18:25:02.376Z,9.93
2023-04-04T18:27:31.048Z,9.80
2023-04-04T18:29:58.191Z,8.70
2023-04-04T18:32:28.304Z,6.03
2023-04-04T18:34:55.793Z,6.07
2023-04-04T18:37:23.850Z,5.55
2023-04-04T18:39:51.076Z,5.55
2023-04-04T18:42:18.558Z,7.32
2023-04-04T18:44:45.739Z,5.35
2023-04-04T18:47:13.455Z,6.72
2023-04-04T18:49:40.887Z,6.55
2023-04-04T18:52:08.433Z,4.70
2023-04-04T18:54:36.274Z,6.80
2023-04-04T18:57:04.119Z,6.72
2023-04-04T18:59:31.576Z,6.57
2023-04-04T19:02:00.801Z,8.10
2023-04-04T19:04:30.080Z,9.23
2023-04-04T19:07:04.203Z,8.15
2023-04-04T19:09:34.275Z,6.38
2023-04-04T19:12:03.469Z,7.50
2023-04-04T19:14:31.092Z,8.30
2023-04-04T19:16:59.176Z,5.85
2023-04-04T19:19:26.464Z,7.50
2023-04-04T19:21:54.542Z,8.10
2023-04-04T19:24:22.385Z,6.60
2023-04-04T19:26:50.052Z,7.70
2023-04-04T19:29:21.601Z,5.97
2023-04-04T19:31:49.378Z,5.72
2023-04-04T19:34:17.381Z,5.68
2023-04-04T19:36:45.843Z,3.97
2023-04-04T19:39:19.866Z,5.10
2023-04-04T19:41:47.434Z,6.32
2023-04-04T19:44:24.061Z,5.65
2023-04-04T19:46:54.202Z,8.43
2023-04-04T19:49:30.628Z,7.32
2023-04-04T19:52:00.728Z,6.47
2023-04-04T19:54:40.991Z,6.18
2023-04-04T19:57:18.839Z,7.38
2023-04-04T19:59:57.774Z,6.75
2023-04-04T20:02:31.180Z,6.78
2023-04-04T20:04:59.069Z,5.28
2023-04-04T20:07:28.801Z,9.50
2023-04-04T20:09:56.160Z,5.60
2023-04-04T20:12:27.007Z,6.60
2023-04-04T20:14:59.548Z,4.82
2023-04-04T20:17:27.328Z,6.55
2023-04-04T20:19:54.388Z,5.97
2023-04-04T20:22:23.337Z,6.75
2023-04-04T20:24:50.454Z,9.02
2023-04-04T20:27:24.282Z,7.40
2023-04-04T20:29:54.099Z,9.05
2023-04-04T20:32:21.465Z,8.48
2023-04-04T20:34:50.273Z,8.02
2023-04-04T20:37:26.273Z,8.00
2023-04-04T20:39:57.818Z,8.07
2023-04-04T20:42:41.579Z,7.90
2023-04-04T20:45:08.732Z,7.18
2023-04-04T20:47:51.869Z,7.60
2023-04-04T20:50:39.487Z,6.43
2023-04-04T20:53:07.700Z,5.95
2023-04-04T20:55:36.002Z,4.75
2023-04-04T20:58:32.631Z,7.13
2023-04-04T21:01:02.361Z,6.38
2023-04-04T21:03:34.820Z,7.90
2023-04-04T21:06:16.000Z,9.15
2023-04-04T21:08:49.251Z,8.15
2023-04-04T21:11:30.809Z,8.68
2023-04-04T21:13:58.235Z,6.88
2023-04-04T21:16:27.789Z,9.32
2023-04-04T21:19:03.411Z,7.30
2023-04-04T21:21:30.878Z,6.28
2023-04-04T21:24:00.017Z,6.50
2023-04-04T21:26:43.241Z,6.50
2023-04-04T21:29:24.770Z,5.43
2023-04-04T21:31:55.204Z,7.22
2023-04-04T21:34:26.332Z,5.07
2023-04-04T21:36:59.813Z,5.18
2023-04-04T21:39:30.848Z,5.28
2023-04-04T21:42:05.964Z,4.47
2023-04-04T21:44:35.833Z,6.47
2023-04-04T21:47:03.207Z,5.53
2023-04-04T21:49:30.640Z,5.03
2023-04-04T21:51:57.741Z,6.28
2023-04-04T21:54:25.173Z,5.88
2023-04-04T21:56:52.228Z,4.40
2023-04-04T21:59:19.824Z,7.20
2023-04-04T22:01:47.052Z,6.88
2023-04-04T22:04:14.501Z,5.88
2023-04-04T22:06:42.627Z,5.90
2023-04-04T22:09:10.669Z,6.00
2023-04-04T22:11:44.090Z,8.48
2023-04-04T22:14:17.214Z,8.00
2023-04-04T22:16:44.622Z,14.93
2023-04-04T22:19:12.088Z,15.77
2023-04-04T22:21:46.766Z,19.85
2023-04-04T22:24:15.548Z,25.98
2023-04-04T22:26:42.665Z,27.48
2023-04-04T22:29:10.384Z,24.30
2023-04-04T22:31:37.941Z,27.17
2023-04-04T22:34:06.263Z,25.95
2023-04-04T22:36:34.349Z,24.50
2023-04-04T22:39:02.784Z,22.25
2023-04-04T22:41:30.141Z,23.30
2023-04-04T22:43:58.218Z,25.67
2023-04-04T22:46:28.331Z,26.88
2023-04-04T22:49:04.585Z,27.45
2023-04-04T22:51:34.947Z,31.17
2023-04-04T22:54:03.239Z,25.27
2023-04-04T22:56:31.653Z,22.05
2023-04-04T22:58:59.303Z,29.33
2023-04-04T23:01:26.753Z,22.52
2023-04-04T23:03:54.226Z,20.52
2023-04-04T23:06:21.927Z,17.98
2023-04-04T23:08:49.344Z,20.83
2023-04-04T23:11:16.471Z,19.55
2023-04-04T23:13:43.948Z,20.63
2023-04-04T23:16:11.049Z,15.50
2023-04-04T23:18:38.509Z,20.52
2023-04-04T23:21:07.227Z,16.02
2023-04-04T23:23:34.505Z,13.00
2023-04-04T23:26:03.700Z,13.45
2023-04-04T23:28:31.262Z,14.02
2023-04-04T23:30:58.330Z,11.68
2023-04-04T23:33:26.283Z,13.82
2023-04-04T23:35:53.350Z,11.63
2023-04-04T23:38:20.770Z,12.45
2023-04-04T23:40:48.159Z,12.25
2023-04-04T23:43:15.528Z,11.93
2023-04-04T23:45:42.611Z,11.50
2023-04-04T23:48:10.106Z,11.85
2023-04-04T23:50:37.947Z,10.38
2023-04-04T23:53:05.630Z,9.88
2023-04-04T23:55:32.779Z,11.10
2023-04-04T23:58:02.417Z,12.95
